PAFE Airport Information

Runway Information
Runway 11 Length 4000 ft width 100 ft
Elevation 150 ft Threshold 0 ft Heading 130
Runway 29 Length 4000 ft Width 100 ft
Elevation 172 ft Threshold 0 ft Heading 310
Airport Frequencies
Type AWOS Name AWOS 3 Frequency 135.25 MHZ
Type CNTR Name ANCHORAGE Frequency 118 MHZ
Type CTAF Name CTAF Frequency 122.9 MHZ
Type FSS Name SITKA RDO Frequency 121.3 MHZ
Airport Navaids
Type NDB-DME Name Kake Frequency 223 KHZ
Airport Weather Information & NOTAM
ADDS - METARS form results

(1851 UTC 13 July 2020)
Data provider http://aviationweather.gov/metar/data/
 
METAR text: PAFE 131828Z AUTO 17003KT 10SM BKN020 OVC029 14/10 A3017 RMK AO2 $
Conditions at: PAFE (KAKE , AK, US) observed 1828 UTC 13 July 2020
Temperature: 14.0°C (57°F)
Dewpoint: 10.0°C (50°F) [RH = 77%]
Pressure (altimeter): 30.17 inches Hg (1021.8 mb)
Winds: from the S (170 degrees) at 3 MPH (3 knots; 1.5 m/s)
Visibility: 10 or more miles (16+ km)
Ceiling: 2000 feet AGL
Clouds: broken clouds at 2000 feet AGL
overcast cloud deck at 2900 feet AGL
Weather:
SOME DATA ABOVE MAY BE INACCURATE!!!
"$" is an indication the sensor requires maintenance

METAR text: PAFE 131756Z AUTO 14007KT 10SM FEW017 OVC037 13/10 A3017 RMK AO2 SLP229 T01330100 10139 20117 53006 $
Conditions at: PAFE (KAKE , AK, US) observed 1756 UTC 13 July 2020
Temperature: 13.3°C (56°F)
Dewpoint: 10.0°C (50°F) [RH = 80%]
Pressure (altimeter): 30.17 inches Hg (1021.8 mb)
[Sea-level pressure: 1022.9 mb]
Winds: from the SE (140 degrees) at 8 MPH (7 knots; 3.6 m/s)
Visibility: 10 or more miles (16+ km)
Ceiling: 3700 feet AGL
Clouds: few clouds at 1700 feet AGL
overcast cloud deck at 3700 feet AGL
Weather:
SOME DATA ABOVE MAY BE INACCURATE!!!
"$" is an indication the sensor requires maintenance